sensor_id;sensor_type;location;lat;lon;timestamp;temperature;humidity
27072;DHT22;14613;46.308;25.288;2023-03-20T00:01:46;4.70;62.90
27072;DHT22;14613;46.308;25.288;2023-03-20T00:04:12;4.70;62.90
27072;DHT22;14613;46.308;25.288;2023-03-20T00:06:38;4.70;63.10
27072;DHT22;14613;46.308;25.288;2023-03-20T00:09:03;4.60;63.10
27072;DHT22;14613;46.308;25.288;2023-03-20T00:11:38;4.60;63.20
27072;DHT22;14613;46.308;25.288;2023-03-20T00:14:11;4.50;63.20
27072;DHT22;14613;46.308;25.288;2023-03-20T00:16:42;4.50;63.40
27072;DHT22;14613;46.308;25.288;2023-03-20T00:19:27;4.50;63.40
27072;DHT22;14613;46.308;25.288;2023-03-20T00:21:57;4.50;63.40
27072;DHT22;14613;46.308;25.288;2023-03-20T00:24:23;4.50;63.50
27072;DHT22;14613;46.308;25.288;2023-03-20T00:26:51;4.40;63.50
27072;DHT22;14613;46.308;25.288;2023-03-20T00:29:28;4.40;63.50
27072;DHT22;14613;46.308;25.288;2023-03-20T00:31:55;4.40;63.70
27072;DHT22;14613;46.308;25.288;2023-03-20T00:34:24;4.40;63.70
27072;DHT22;14613;46.308;25.288;2023-03-20T00:36:52;4.30;63.70
27072;DHT22;14613;46.308;25.288;2023-03-20T00:39:19;4.30;63.70
27072;DHT22;14613;46.308;25.288;2023-03-20T00:41:56;4.30;63.80
27072;DHT22;14613;46.308;25.288;2023-03-20T00:44:35;4.30;63.90
27072;DHT22;14613;46.308;25.288;2023-03-20T00:47:05;4.20;64.00
27072;DHT22;14613;46.308;25.288;2023-03-20T00:49:33;4.20;64.10
27072;DHT22;14613;46.308;25.288;2023-03-20T00:52:01;4.10;64.10
27072;DHT22;14613;46.308;25.288;2023-03-20T00:54:28;4.10;64.30
27072;DHT22;14613;46.308;25.288;2023-03-20T00:57:05;4.10;64.30
27072;DHT22;14613;46.308;25.288;2023-03-20T00:59:37;4.00;64.40
27072;DHT22;14613;46.308;25.288;2023-03-20T01:02:04;4.00;64.40
27072;DHT22;14613;46.308;25.288;2023-03-20T01:04:35;4.00;64.50
27072;DHT22;14613;46.308;25.288;2023-03-20T01:07:02;3.90;65.40
27072;DHT22;14613;46.308;25.288;2023-03-20T01:09:28;3.90;64.60
27072;DHT22;14613;46.308;25.288;2023-03-20T01:11:54;3.90;64.70
27072;DHT22;14613;46.308;25.288;2023-03-20T01:14:20;3.90;64.70
27072;DHT22;14613;46.308;25.288;2023-03-20T01:16:45;3.90;64.70
27072;DHT22;14613;46.308;25.288;2023-03-20T01:19:13;4.00;64.70
27072;DHT22;14613;46.308;25.288;2023-03-20T01:21:39;4.00;64.70
27072;DHT22;14613;46.308;25.288;2023-03-20T01:24:06;3.90;64.60
27072;DHT22;14613;46.308;25.288;2023-03-20T01:26:42;3.90;65.00
27072;DHT22;14613;46.308;25.288;2023-03-20T01:29:21;3.90;64.70
27072;DHT22;14613;46.308;25.288;2023-03-20T01:31:47;3.90;64.80
27072;DHT22;14613;46.308;25.288;2023-03-20T01:34:13;3.80;64.90
27072;DHT22;14613;46.308;25.288;2023-03-20T01:36:49;3.70;65.00
27072;DHT22;14613;46.308;25.288;2023-03-20T01:39:15;3.70;65.20
27072;DHT22;14613;46.308;25.288;2023-03-20T01:41:43;3.70;65.30
27072;DHT22;14613;46.308;25.288;2023-03-20T01:44:24;3.60;65.40
27072;DHT22;14613;46.308;25.288;2023-03-20T01:46:52;3.60;65.50
27072;DHT22;14613;46.308;25.288;2023-03-20T01:51:45;3.60;65.50
27072;DHT22;14613;46.308;25.288;2023-03-20T01:54:24;3.60;65.50
27072;DHT22;14613;46.308;25.288;2023-03-20T01:57:10;3.60;65.50
27072;DHT22;14613;46.308;25.288;2023-03-20T01:59:46;3.60;65.60
27072;DHT22;14613;46.308;25.288;2023-03-20T02:02:20;3.60;65.60
27072;DHT22;14613;46.308;25.288;2023-03-20T02:04:51;3.60;65.60
27072;DHT22;14613;46.308;25.288;2023-03-20T02:07:20;3.60;65.60
27072;DHT22;14613;46.308;25.288;2023-03-20T02:09:48;3.50;65.50
27072;DHT22;14613;46.308;25.288;2023-03-20T02:12:15;3.50;65.60
27072;DHT22;14613;46.308;25.288;2023-03-20T02:14:43;3.60;65.70
27072;DHT22;14613;46.308;25.288;2023-03-20T02:17:10;3.50;65.70
27072;DHT22;14613;46.308;25.288;2023-03-20T02:28:12;3.40;66.10
27072;DHT22;14613;46.308;25.288;2023-03-20T02:43:06;3.40;66.40
27072;DHT22;14613;46.308;25.288;2023-03-20T02:45:56;3.40;66.40
27072;DHT22;14613;46.308;25.288;2023-03-20T02:48:35;3.40;66.40
27072;DHT22;14613;46.308;25.288;2023-03-20T02:57:04;3.30;66.50
27072;DHT22;14613;46.308;25.288;2023-03-20T03:04:37;3.40;66.60
27072;DHT22;14613;46.308;25.288;2023-03-20T03:07:06;3.40;66.50
27072;DHT22;14613;46.308;25.288;2023-03-20T03:09:38;3.40;66.40
27072;DHT22;14613;46.308;25.288;2023-03-20T03:12:11;3.40;66.40
27072;DHT22;14613;46.308;25.288;2023-03-20T03:14:54;3.40;66.50
27072;DHT22;14613;46.308;25.288;2023-03-20T03:17:24;3.30;66.50
27072;DHT22;14613;46.308;25.288;2023-03-20T03:19:54;3.30;66.70
27072;DHT22;14613;46.308;25.288;2023-03-20T03:22:22;3.30;66.70
27072;DHT22;14613;46.308;25.288;2023-03-20T03:24:51;3.30;66.80
27072;DHT22;14613;46.308;25.288;2023-03-20T03:27:37;3.30;67.00
27072;DHT22;14613;46.308;25.288;2023-03-20T03:33:08;3.30;67.00
27072;DHT22;14613;46.308;25.288;2023-03-20T03:35:38;3.20;67.00
27072;DHT22;14613;46.308;25.288;2023-03-20T03:38:29;3.20;67.10
27072;DHT22;14613;46.308;25.288;2023-03-20T03:44:10;3.20;67.30
27072;DHT22;14613;46.308;25.288;2023-03-20T03:46:44;3.20;67.30
27072;DHT22;14613;46.308;25.288;2023-03-20T03:49:15;3.20;67.40
27072;DHT22;14613;46.308;25.288;2023-03-20T03:51:45;3.20;67.40
27072;DHT22;14613;46.308;25.288;2023-03-20T03:54:17;3.20;67.40
27072;DHT22;14613;46.308;25.288;2023-03-20T03:56:45;3.30;67.50
27072;DHT22;14613;46.308;25.288;2023-03-20T03:59:19;3.30;67.50
27072;DHT22;14613;46.308;25.288;2023-03-20T04:01:48;3.30;67.40
27072;DHT22;14613;46.308;25.288;2023-03-20T04:04:15;3.30;67.30
27072;DHT22;14613;46.308;25.288;2023-03-20T04:06:42;3.40;67.30
27072;DHT22;14613;46.308;25.288;2023-03-20T04:09:08;3.40;67.30
27072;DHT22;14613;46.308;25.288;2023-03-20T04:11:34;3.40;67.30
27072;DHT22;14613;46.308;25.288;2023-03-20T04:14:00;3.40;67.30
27072;DHT22;14613;46.308;25.288;2023-03-20T04:16:26;3.40;67.30
27072;DHT22;14613;46.308;25.288;2023-03-20T04:18:52;3.40;67.30
27072;DHT22;14613;46.308;25.288;2023-03-20T04:21:20;3.40;67.40
27072;DHT22;14613;46.308;25.288;2023-03-20T04:23:45;3.40;67.50
27072;DHT22;14613;46.308;25.288;2023-03-20T04:26:11;3.50;67.50
27072;DHT22;14613;46.308;25.288;2023-03-20T04:28:37;3.50;67.60
27072;DHT22;14613;46.308;25.288;2023-03-20T04:31:03;3.50;67.60
27072;DHT22;14613;46.308;25.288;2023-03-20T04:33:29;3.50;67.60
27072;DHT22;14613;46.308;25.288;2023-03-20T04:35:55;3.50;67.70
27072;DHT22;14613;46.308;25.288;2023-03-20T04:38:22;3.50;67.70
27072;DHT22;14613;46.308;25.288;2023-03-20T04:40:49;3.50;67.70
27072;DHT22;14613;46.308;25.288;2023-03-20T04:43:15;3.60;67.80
27072;DHT22;14613;46.308;25.288;2023-03-20T04:45:41;3.70;67.80
27072;DHT22;14613;46.308;25.288;2023-03-20T04:48:07;3.70;67.80
27072;DHT22;14613;46.308;25.288;2023-03-20T04:50:33;3.80;67.70
27072;DHT22;14613;46.308;25.288;2023-03-20T04:52:59;3.80;67.70
27072;DHT22;14613;46.308;25.288;2023-03-20T04:55:25;3.90;67.70
27072;DHT22;14613;46.308;25.288;2023-03-20T04:57:51;3.90;67.60
27072;DHT22;14613;46.308;25.288;2023-03-20T05:00:17;4.00;67.60
27072;DHT22;14613;46.308;25.288;2023-03-20T05:02:43;4.00;67.60
27072;DHT22;14613;46.308;25.288;2023-03-20T05:05:10;4.10;67.60
27072;DHT22;14613;46.308;25.288;2023-03-20T05:07:36;4.10;67.60
27072;DHT22;14613;46.308;25.288;2023-03-20T05:10:03;4.10;67.60
27072;DHT22;14613;46.308;25.288;2023-03-20T05:12:29;4.20;67.60
27072;DHT22;14613;46.308;25.288;2023-03-20T05:14:55;4.20;67.60
27072;DHT22;14613;46.308;25.288;2023-03-20T05:17:22;4.30;67.70
27072;DHT22;14613;46.308;25.288;2023-03-20T05:19:48;4.30;67.60
27072;DHT22;14613;46.308;25.288;2023-03-20T05:22:17;4.40;67.70
27072;DHT22;14613;46.308;25.288;2023-03-20T05:24:43;4.50;67.80
27072;DHT22;14613;46.308;25.288;2023-03-20T05:27:09;4.50;67.70
27072;DHT22;14613;46.308;25.288;2023-03-20T05:29:36;4.60;67.70
27072;DHT22;14613;46.308;25.288;2023-03-20T05:32:02;4.70;67.80
27072;DHT22;14613;46.308;25.288;2023-03-20T05:34:27;4.70;67.80
27072;DHT22;14613;46.308;25.288;2023-03-20T05:36:53;4.80;67.80
27072;DHT22;14613;46.308;25.288;2023-03-20T05:39:19;4.90;68.60
27072;DHT22;14613;46.308;25.288;2023-03-20T05:41:48;5.00;67.90
27072;DHT22;14613;46.308;25.288;2023-03-20T05:44:13;5.10;67.90
27072;DHT22;14613;46.308;25.288;2023-03-20T05:46:39;5.20;68.00
27072;DHT22;14613;46.308;25.288;2023-03-20T05:49:06;5.40;68.00
27072;DHT22;14613;46.308;25.288;2023-03-20T05:51:32;5.50;68.00
27072;DHT22;14613;46.308;25.288;2023-03-20T05:53:58;5.70;68.00
27072;DHT22;14613;46.308;25.288;2023-03-20T05:56:23;5.80;68.00
27072;DHT22;14613;46.308;25.288;2023-03-20T05:58:49;6.00;67.70
27072;DHT22;14613;46.308;25.288;2023-03-20T06:01:16;6.20;67.60
27072;DHT22;14613;46.308;25.288;2023-03-20T06:03:46;6.30;67.40
27072;DHT22;14613;46.308;25.288;2023-03-20T06:06:13;6.40;67.20
27072;DHT22;14613;46.308;25.288;2023-03-20T06:08:39;6.50;67.10
27072;DHT22;14613;46.308;25.288;2023-03-20T06:11:05;6.60;67.10
27072;DHT22;14613;46.308;25.288;2023-03-20T06:13:31;6.70;67.10
27072;DHT22;14613;46.308;25.288;2023-03-20T06:15:57;6.90;67.50
27072;DHT22;14613;46.308;25.288;2023-03-20T06:18:23;7.20;67.50
27072;DHT22;14613;46.308;25.288;2023-03-20T06:20:56;7.40;67.30
27072;DHT22;14613;46.308;25.288;2023-03-20T06:23:22;7.60;67.30
27072;DHT22;14613;46.308;25.288;2023-03-20T06:25:49;7.70;67.10
27072;DHT22;14613;46.308;25.288;2023-03-20T06:28:15;7.90;67.00
27072;DHT22;14613;46.308;25.288;2023-03-20T06:30:42;8.10;67.00
27072;DHT22;14613;46.308;25.288;2023-03-20T06:33:08;8.40;67.00
27072;DHT22;14613;46.308;25.288;2023-03-20T06:35:34;8.60;66.80
27072;DHT22;14613;46.308;25.288;2023-03-20T06:38:00;8.90;66.60
27072;DHT22;14613;46.308;25.288;2023-03-20T06:40:27;9.20;66.50
27072;DHT22;14613;46.308;25.288;2023-03-20T06:42:53;9.50;66.30
27072;DHT22;14613;46.308;25.288;2023-03-20T06:45:20;9.70;65.80
27072;DHT22;14613;46.308;25.288;2023-03-20T06:47:46;10.00;65.40
27072;DHT22;14613;46.308;25.288;2023-03-20T06:50:13;10.20;65.00
27072;DHT22;14613;46.308;25.288;2023-03-20T06:52:39;10.30;64.80
27072;DHT22;14613;46.308;25.288;2023-03-20T06:55:06;10.40;64.60
27072;DHT22;14613;46.308;25.288;2023-03-20T06:57:32;10.50;64.50
27072;DHT22;14613;46.308;25.288;2023-03-20T06:59:58;10.70;64.30
27072;DHT22;14613;46.308;25.288;2023-03-20T07:02:24;10.80;64.10
27072;DHT22;14613;46.308;25.288;2023-03-20T07:04:51;11.00;63.80
27072;DHT22;14613;46.308;25.288;2023-03-20T07:07:17;11.10;63.60
27072;DHT22;14613;46.308;25.288;2023-03-20T07:09:43;11.20;63.30
27072;DHT22;14613;46.308;25.288;2023-03-20T07:12:14;11.30;62.80
27072;DHT22;14613;46.308;25.288;2023-03-20T07:14:41;11.40;62.60
27072;DHT22;14613;46.308;25.288;2023-03-20T07:17:08;11.30;62.50
27072;DHT22;14613;46.308;25.288;2023-03-20T07:19:35;11.40;62.60
27072;DHT22;14613;46.308;25.288;2023-03-20T07:22:04;11.50;62.60
27072;DHT22;14613;46.308;25.288;2023-03-20T07:24:32;11.60;62.50
27072;DHT22;14613;46.308;25.288;2023-03-20T07:26:58;11.70;62.30
27072;DHT22;14613;46.308;25.288;2023-03-20T07:29:24;11.90;62.20
27072;DHT22;14613;46.308;25.288;2023-03-20T07:31:50;12.10;62.00
27072;DHT22;14613;46.308;25.288;2023-03-20T07:34:16;12.10;61.70
27072;DHT22;14613;46.308;25.288;2023-03-20T07:36:42;12.20;61.50
27072;DHT22;14613;46.308;25.288;2023-03-20T07:39:08;12.20;61.20
27072;DHT22;14613;46.308;25.288;2023-03-20T07:41:34;12.30;61.20
27072;DHT22;14613;46.308;25.288;2023-03-20T07:44:01;12.30;61.10
27072;DHT22;14613;46.308;25.288;2023-03-20T07:46:26;12.30;61.10
27072;DHT22;14613;46.308;25.288;2023-03-20T07:48:52;12.50;61.10
27072;DHT22;14613;46.308;25.288;2023-03-20T07:51:18;12.50;60.90
27072;DHT22;14613;46.308;25.288;2023-03-20T07:53:44;12.60;60.80
27072;DHT22;14613;46.308;25.288;2023-03-20T07:56:10;12.80;60.80
27072;DHT22;14613;46.308;25.288;2023-03-20T07:58:35;12.90;60.70
27072;DHT22;14613;46.308;25.288;2023-03-20T08:01:02;13.10;60.40
27072;DHT22;14613;46.308;25.288;2023-03-20T08:03:28;13.20;60.10
27072;DHT22;14613;46.308;25.288;2023-03-20T08:05:54;13.30;60.00
27072;DHT22;14613;46.308;25.288;2023-03-20T08:08:20;13.50;59.90
27072;DHT22;14613;46.308;25.288;2023-03-20T08:10:46;13.70;59.80
27072;DHT22;14613;46.308;25.288;2023-03-20T08:13:13;13.80;59.50
27072;DHT22;14613;46.308;25.288;2023-03-20T08:15:38;13.90;59.10
27072;DHT22;14613;46.308;25.288;2023-03-20T08:18:04;13.90;59.10
27072;DHT22;14613;46.308;25.288;2023-03-20T08:20:30;14.00;59.00
27072;DHT22;14613;46.308;25.288;2023-03-20T08:22:56;14.20;59.00
27072;DHT22;14613;46.308;25.288;2023-03-20T08:25:22;14.30;58.80
27072;DHT22;14613;46.308;25.288;2023-03-20T08:27:48;14.60;58.70
27072;DHT22;14613;46.308;25.288;2023-03-20T08:30:14;14.80;58.30
27072;DHT22;14613;46.308;25.288;2023-03-20T08:32:40;15.00;58.00
27072;DHT22;14613;46.308;25.288;2023-03-20T08:35:07;15.20;57.90
27072;DHT22;14613;46.308;25.288;2023-03-20T08:37:33;15.50;57.70
27072;DHT22;14613;46.308;25.288;2023-03-20T08:40:00;15.70;57.50
27072;DHT22;14613;46.308;25.288;2023-03-20T08:42:25;16.00;57.40
27072;DHT22;14613;46.308;25.288;2023-03-20T08:44:51;16.30;57.10
27072;DHT22;14613;46.308;25.288;2023-03-20T08:47:17;16.50;56.70
27072;DHT22;14613;46.308;25.288;2023-03-20T08:49:44;16.80;56.40
27072;DHT22;14613;46.308;25.288;2023-03-20T08:52:10;16.90;56.10
27072;DHT22;14613;46.308;25.288;2023-03-20T08:54:36;17.10;55.90
27072;DHT22;14613;46.308;25.288;2023-03-20T08:57:01;17.20;55.50
27072;DHT22;14613;46.308;25.288;2023-03-20T08:59:28;17.30;55.50
27072;DHT22;14613;46.308;25.288;2023-03-20T09:01:53;17.40;55.50
27072;DHT22;14613;46.308;25.288;2023-03-20T09:04:19;17.50;55.30
27072;DHT22;14613;46.308;25.288;2023-03-20T09:06:45;17.50;54.90
27072;DHT22;14613;46.308;25.288;2023-03-20T09:09:11;17.50;54.80
27072;DHT22;14613;46.308;25.288;2023-03-20T09:11:40;17.50;54.90
27072;DHT22;14613;46.308;25.288;2023-03-20T09:14:06;17.50;55.00
27072;DHT22;14613;46.308;25.288;2023-03-20T09:16:31;17.50;55.10
27072;DHT22;14613;46.308;25.288;2023-03-20T09:18:57;17.50;55.10
27072;DHT22;14613;46.308;25.288;2023-03-20T09:21:23;17.60;55.10
27072;DHT22;14613;46.308;25.288;2023-03-20T09:23:49;17.70;54.90
27072;DHT22;14613;46.308;25.288;2023-03-20T09:26:15;17.70;54.50
27072;DHT22;14613;46.308;25.288;2023-03-20T09:28:41;17.80;54.20
27072;DHT22;14613;46.308;25.288;2023-03-20T09:31:07;17.80;54.40
27072;DHT22;14613;46.308;25.288;2023-03-20T09:33:32;17.90;54.50
27072;DHT22;14613;46.308;25.288;2023-03-20T09:35:58;18.00;54.90
27072;DHT22;14613;46.308;25.288;2023-03-20T09:38:24;18.20;54.20
27072;DHT22;14613;46.308;25.288;2023-03-20T09:40:59;18.30;54.00
27072;DHT22;14613;46.308;25.288;2023-03-20T09:46:46;18.70;52.90
27072;DHT22;14613;46.308;25.288;2023-03-20T09:52:23;19.00;52.70
27072;DHT22;14613;46.308;25.288;2023-03-20T09:55:11;19.20;52.40
27072;DHT22;14613;46.308;25.288;2023-03-20T09:57:44;19.40;52.20
27072;DHT22;14613;46.308;25.288;2023-03-20T10:00:14;19.60;51.90
27072;DHT22;14613;46.308;25.288;2023-03-20T10:05:18;20.00;51.70
27072;DHT22;14613;46.308;25.288;2023-03-20T10:07:45;20.20;51.30
27072;DHT22;14613;46.308;25.288;2023-03-20T10:10:15;20.40;50.40
27072;DHT22;14613;46.308;25.288;2023-03-20T10:25:52;20.70;49.60
27072;DHT22;14613;46.308;25.288;2023-03-20T10:28:36;21.00;49.40
27072;DHT22;14613;46.308;25.288;2023-03-20T10:32:05;21.10;48.90
27072;DHT22;14613;46.308;25.288;2023-03-20T10:34:43;21.30;48.50
27072;DHT22;14613;46.308;25.288;2023-03-20T10:37:35;21.50;48.50
27072;DHT22;14613;46.308;25.288;2023-03-20T10:40:16;21.60;48.50
27072;DHT22;14613;46.308;25.288;2023-03-20T10:42:46;21.80;48.20
27072;DHT22;14613;46.308;25.288;2023-03-20T10:47:42;21.90;47.40
27072;DHT22;14613;46.308;25.288;2023-03-20T10:50:22;21.90;46.80
27072;DHT22;14613;46.308;25.288;2023-03-20T10:52:54;21.90;46.80
27072;DHT22;14613;46.308;25.288;2023-03-20T10:55:28;21.90;46.50
27072;DHT22;14613;46.308;25.288;2023-03-20T10:58:22;21.80;46.00
27072;DHT22;14613;46.308;25.288;2023-03-20T11:00:49;21.70;46.10
27072;DHT22;14613;46.308;25.288;2023-03-20T11:03:29;21.80;46.20
27072;DHT22;14613;46.308;25.288;2023-03-20T11:06:18;21.80;45.80
27072;DHT22;14613;46.308;25.288;2023-03-20T11:08:49;21.80;45.70
27072;DHT22;14613;46.308;25.288;2023-03-20T11:11:25;21.80;45.80
27072;DHT22;14613;46.308;25.288;2023-03-20T11:13:53;21.90;45.70
27072;DHT22;14613;46.308;25.288;2023-03-20T11:16:33;22.00;45.70
27072;DHT22;14613;46.308;25.288;2023-03-20T11:19:06;22.20;45.70
27072;DHT22;14613;46.308;25.288;2023-03-20T11:21:32;22.40;45.50
27072;DHT22;14613;46.308;25.288;2023-03-20T11:24:01;22.50;44.90
27072;DHT22;14613;46.308;25.288;2023-03-20T11:28:58;22.50;44.50
27072;DHT22;14613;46.308;25.288;2023-03-20T11:31:34;22.60;44.60
27072;DHT22;14613;46.308;25.288;2023-03-20T11:36:30;22.70;44.20
27072;DHT22;14613;46.308;25.288;2023-03-20T11:39:12;22.80;43.90
27072;DHT22;14613;46.308;25.288;2023-03-20T11:41:47;22.80;43.60
27072;DHT22;14613;46.308;25.288;2023-03-20T11:44:26;22.70;43.30
27072;DHT22;14613;46.308;25.288;2023-03-20T11:46:56;22.70;43.30
27072;DHT22;14613;46.308;25.288;2023-03-20T11:49:23;22.70;43.20
27072;DHT22;14613;46.308;25.288;2023-03-20T11:51:51;22.70;43.20
27072;DHT22;14613;46.308;25.288;2023-03-20T11:54:22;22.60;43.00
27072;DHT22;14613;46.308;25.288;2023-03-20T11:56:57;22.60;42.70
27072;DHT22;14613;46.308;25.288;2023-03-20T11:59:32;22.50;42.80
27072;DHT22;14613;46.308;25.288;2023-03-20T12:02:01;22.40;42.70
27072;DHT22;14613;46.308;25.288;2023-03-20T12:04:34;22.40;42.80
27072;DHT22;14613;46.308;25.288;2023-03-20T12:07:21;22.50;42.80
27072;DHT22;14613;46.308;25.288;2023-03-20T12:09:53;22.60;42.70
27072;DHT22;14613;46.308;25.288;2023-03-20T12:18:04;22.50;42.30
27072;DHT22;14613;46.308;25.288;2023-03-20T12:28:35;22.40;41.90
27072;DHT22;14613;46.308;25.288;2023-03-20T12:31:22;22.30;41.20
27072;DHT22;14613;46.308;25.288;2023-03-20T12:36:32;22.20;41.50
27072;DHT22;14613;46.308;25.288;2023-03-20T12:39:02;22.30;41.40
27072;DHT22;14613;46.308;25.288;2023-03-20T12:44:15;22.30;41.40
27072;DHT22;14613;46.308;25.288;2023-03-20T12:52:04;22.40;41.20
27072;DHT22;14613;46.308;25.288;2023-03-20T13:00:34;22.50;41.10
27072;DHT22;14613;46.308;25.288;2023-03-20T13:06:09;22.50;41.10
27072;DHT22;14613;46.308;25.288;2023-03-20T13:09:03;22.40;41.00
27072;DHT22;14613;46.308;25.288;2023-03-20T13:16:50;22.20;41.10
27072;DHT22;14613;46.308;25.288;2023-03-20T13:22:21;22.10;41.20
27072;DHT22;14613;46.308;25.288;2023-03-20T13:24:54;22.20;41.20
27072;DHT22;14613;46.308;25.288;2023-03-20T13:27:47;22.20;41.10
27072;DHT22;14613;46.308;25.288;2023-03-20T13:30:27;22.20;41.00
27072;DHT22;14613;46.308;25.288;2023-03-20T13:35:59;22.00;40.60
27072;DHT22;14613;46.308;25.288;2023-03-20T13:38:30;21.90;40.50
27072;DHT22;14613;46.308;25.288;2023-03-20T13:41:03;21.80;40.80
27072;DHT22;14613;46.308;25.288;2023-03-20T13:43:34;21.80;40.90
27072;DHT22;14613;46.308;25.288;2023-03-20T13:46:40;21.80;41.60
27072;DHT22;14613;46.308;25.288;2023-03-20T13:49:09;21.80;40.80
27072;DHT22;14613;46.308;25.288;2023-03-20T13:51:38;21.80;40.90
27072;DHT22;14613;46.308;25.288;2023-03-20T13:59:54;21.90;40.90
27072;DHT22;14613;46.308;25.288;2023-03-20T14:02:26;21.90;40.90
27072;DHT22;14613;46.308;25.288;2023-03-20T14:05:10;21.80;40.80
27072;DHT22;14613;46.308;25.288;2023-03-20T14:07:42;21.70;40.70
27072;DHT22;14613;46.308;25.288;2023-03-20T14:13:25;21.60;40.80
27072;DHT22;14613;46.308;25.288;2023-03-20T14:15:54;21.60;40.80
27072;DHT22;14613;46.308;25.288;2023-03-20T14:18:23;21.60;40.80
27072;DHT22;14613;46.308;25.288;2023-03-20T14:20:55;21.60;40.80
27072;DHT22;14613;46.308;25.288;2023-03-20T14:23:37;21.60;40.80
27072;DHT22;14613;46.308;25.288;2023-03-20T14:31:32;21.40;40.80
27072;DHT22;14613;46.308;25.288;2023-03-20T14:39:53;21.20;40.50
27072;DHT22;14613;46.308;25.288;2023-03-20T14:50:26;20.80;40.80
27072;DHT22;14613;46.308;25.288;2023-03-20T14:53:25;20.80;40.90
27072;DHT22;14613;46.308;25.288;2023-03-20T14:55:57;20.80;41.00
27072;DHT22;14613;46.308;25.288;2023-03-20T15:01:04;20.70;41.10
27072;DHT22;14613;46.308;25.288;2023-03-20T15:03:31;20.70;41.00
27072;DHT22;14613;46.308;25.288;2023-03-20T15:06:00;20.70;40.90
27072;DHT22;14613;46.308;25.288;2023-03-20T15:08:32;20.70;41.00
27072;DHT22;14613;46.308;25.288;2023-03-20T15:11:04;20.70;41.70
27072;DHT22;14613;46.308;25.288;2023-03-20T15:13:30;20.70;41.10
27072;DHT22;14613;46.308;25.288;2023-03-20T15:18:29;20.70;41.30
27072;DHT22;14613;46.308;25.288;2023-03-20T15:20:55;20.60;41.10
27072;DHT22;14613;46.308;25.288;2023-03-20T15:23:22;20.50;41.00
27072;DHT22;14613;46.308;25.288;2023-03-20T15:25:50;20.40;41.10
27072;DHT22;14613;46.308;25.288;2023-03-20T15:28:22;20.40;41.30
27072;DHT22;14613;46.308;25.288;2023-03-20T15:30:51;20.30;41.40
27072;DHT22;14613;46.308;25.288;2023-03-20T15:33:27;20.30;41.40
27072;DHT22;14613;46.308;25.288;2023-03-20T15:35:54;20.20;41.50
27072;DHT22;14613;46.308;25.288;2023-03-20T15:38:20;20.10;41.50
27072;DHT22;14613;46.308;25.288;2023-03-20T15:40:47;20.00;41.70
27072;DHT22;14613;46.308;25.288;2023-03-20T15:43:17;20.00;41.80
27072;DHT22;14613;46.308;25.288;2023-03-20T15:45:44;19.90;41.90
27072;DHT22;14613;46.308;25.288;2023-03-20T15:48:16;19.90;42.00
27072;DHT22;14613;46.308;25.288;2023-03-20T15:50:49;19.80;42.10
27072;DHT22;14613;46.308;25.288;2023-03-20T15:53:28;19.70;42.20
27072;DHT22;14613;46.308;25.288;2023-03-20T15:56:10;19.60;42.30
27072;DHT22;14613;46.308;25.288;2023-03-20T15:58:37;19.50;42.30
27072;DHT22;14613;46.308;25.288;2023-03-20T16:01:06;19.40;42.40
27072;DHT22;14613;46.308;25.288;2023-03-20T16:03:34;19.30;42.50
27072;DHT22;14613;46.308;25.288;2023-03-20T16:06:05;19.30;42.70
27072;DHT22;14613;46.308;25.288;2023-03-20T16:08:33;19.20;42.80
27072;DHT22;14613;46.308;25.288;2023-03-20T16:13:25;19.00;43.10
27072;DHT22;14613;46.308;25.288;2023-03-20T16:15:54;18.80;43.20
27072;DHT22;14613;46.308;25.288;2023-03-20T16:18:20;18.70;43.30
27072;DHT22;14613;46.308;25.288;2023-03-20T16:21:00;18.60;43.40
27072;DHT22;14613;46.308;25.288;2023-03-20T16:23:39;18.50;43.60
27072;DHT22;14613;46.308;25.288;2023-03-20T16:26:07;18.30;43.80
27072;DHT22;14613;46.308;25.288;2023-03-20T16:28:36;18.20;43.80
27072;DHT22;14613;46.308;25.288;2023-03-20T16:31:16;18.10;44.00
27072;DHT22;14613;46.308;25.288;2023-03-20T16:33:43;18.00;44.80
27072;DHT22;14613;46.308;25.288;2023-03-20T16:36:15;17.80;44.30
27072;DHT22;14613;46.308;25.288;2023-03-20T16:39:06;17.70;44.40
27072;DHT22;14613;46.308;25.288;2023-03-20T16:41:34;17.60;44.50
27072;DHT22;14613;46.308;25.288;2023-03-20T16:46:36;17.20;44.80
27072;DHT22;14613;46.308;25.288;2023-03-20T16:52:02;16.90;45.30
27072;DHT22;14613;46.308;25.288;2023-03-20T16:54:30;16.70;45.50
27072;DHT22;14613;46.308;25.288;2023-03-20T16:56:59;16.50;45.80
27072;DHT22;14613;46.308;25.288;2023-03-20T16:59:25;16.30;46.00
27072;DHT22;14613;46.308;25.288;2023-03-20T17:01:51;16.10;46.30
27072;DHT22;14613;46.308;25.288;2023-03-20T17:04:32;16.00;46.50
27072;DHT22;14613;46.308;25.288;2023-03-20T17:07:05;15.70;46.80
27072;DHT22;14613;46.308;25.288;2023-03-20T17:09:32;15.40;47.30
27072;DHT22;14613;46.308;25.288;2023-03-20T17:12:12;15.10;47.70
27072;DHT22;14613;46.308;25.288;2023-03-20T17:14:39;14.80;48.10
27072;DHT22;14613;46.308;25.288;2023-03-20T17:17:18;14.70;48.40
27072;DHT22;14613;46.308;25.288;2023-03-20T17:19:46;14.50;48.60
27072;DHT22;14613;46.308;25.288;2023-03-20T17:22:20;14.40;48.90
27072;DHT22;14613;46.308;25.288;2023-03-20T17:24:46;14.20;49.10
27072;DHT22;14613;46.308;25.288;2023-03-20T17:27:13;14.10;49.30
27072;DHT22;14613;46.308;25.288;2023-03-20T17:29:40;14.00;49.50
27072;DHT22;14613;46.308;25.288;2023-03-20T17:32:24;13.90;49.70
27072;DHT22;14613;46.308;25.288;2023-03-20T17:34:50;13.70;50.00
27072;DHT22;14613;46.308;25.288;2023-03-20T17:37:24;13.60;50.20
27072;DHT22;14613;46.308;25.288;2023-03-20T17:39:50;13.60;51.20
27072;DHT22;14613;46.308;25.288;2023-03-20T17:42:20;13.50;50.80
27072;DHT22;14613;46.308;25.288;2023-03-20T17:44:47;13.40;50.90
27072;DHT22;14613;46.308;25.288;2023-03-20T17:47:22;13.40;51.20
27072;DHT22;14613;46.308;25.288;2023-03-20T17:49:49;13.40;51.30
27072;DHT22;14613;46.308;25.288;2023-03-20T17:52:34;13.30;51.30
27072;DHT22;14613;46.308;25.288;2023-03-20T17:55:00;13.30;51.40
27072;DHT22;14613;46.308;25.288;2023-03-20T17:57:32;13.30;51.50
27072;DHT22;14613;46.308;25.288;2023-03-20T17:59:59;13.20;51.50
27072;DHT22;14613;46.308;25.288;2023-03-20T18:02:25;13.20;51.50
27072;DHT22;14613;46.308;25.288;2023-03-20T18:04:51;13.20;51.60
27072;DHT22;14613;46.308;25.288;2023-03-20T18:07:18;13.30;51.60
27072;DHT22;14613;46.308;25.288;2023-03-20T18:09:44;13.30;51.60
27072;DHT22;14613;46.308;25.288;2023-03-20T18:12:12;13.30;51.60
27072;DHT22;14613;46.308;25.288;2023-03-20T18:14:38;13.30;51.50
27072;DHT22;14613;46.308;25.288;2023-03-20T18:17:05;13.30;51.50